Terminal Aerodrome Forecast
Issued by NWS

Home | Current Version | Previous Version | Text Only | Print | Product List | Glossary On
Versions: 1 2 3 4 5 6 7 8 9 10 11 12
000
FTUS42 TJSJ 020552
TAFKPK
TAF
TKPK 020552Z 0206/0306 10007KT P6SM -SHRA VCTS FEW018CB SCT022
      OVC090
     FM021330 11012KT P6SM VCTS SCT018CB SCT022 SCT030
     FM022330 08007KT P6SM FEW018 SCT040
      AMD NOT SKED TIL 021100=

USA.gov is the U.S. government's official web portal to all federal, state and local government web resources and services.